createdAt,value
2023-02-12T00:00:04.872Z,17.50
2023-02-12T00:02:31.605Z,17.50
2023-02-12T00:04:58.352Z,17.50
2023-02-12T00:07:25.132Z,17.50
2023-02-12T00:09:51.810Z,17.50
2023-02-12T00:12:18.533Z,17.50
2023-02-12T00:14:45.236Z,17.60
2023-02-12T00:17:11.921Z,17.60
2023-02-12T00:19:38.620Z,17.60
2023-02-12T00:22:05.302Z,17.60
2023-02-12T00:24:32.498Z,17.60
2023-02-12T00:26:59.180Z,17.50
2023-02-12T00:29:25.922Z,17.50
2023-02-12T00:31:52.856Z,17.50
2023-02-12T00:34:19.618Z,17.50
2023-02-12T00:36:46.296Z,17.50
2023-02-12T00:39:13.013Z,17.50
2023-02-12T00:41:39.747Z,17.50
2023-02-12T00:44:06.424Z,17.50
2023-02-12T00:46:33.177Z,17.50
2023-02-12T00:48:59.903Z,17.50
2023-02-12T00:51:26.669Z,17.50
2023-02-12T00:53:53.504Z,17.50
2023-02-12T00:56:20.203Z,17.40
2023-02-12T00:58:46.870Z,17.40
2023-02-12T01:01:13.700Z,17.40
2023-02-12T01:03:40.457Z,17.40
2023-02-12T01:06:07.647Z,17.40
2023-02-12T01:08:34.447Z,17.40
2023-02-12T01:11:03.314Z,17.30
2023-02-12T01:13:31.628Z,17.40
2023-02-12T01:16:03.310Z,17.30
2023-02-12T01:18:30.088Z,17.30
2023-02-12T01:20:58.907Z,17.30
2023-02-12T01:23:25.901Z,17.30
2023-02-12T01:25:52.995Z,17.30
2023-02-12T01:28:20.126Z,17.20
2023-02-12T01:30:46.920Z,17.20
2023-02-12T01:33:13.716Z,17.30
2023-02-12T01:35:40.443Z,17.30
2023-02-12T01:38:07.126Z,17.30
2023-02-12T01:40:33.873Z,17.30
2023-02-12T01:43:02.942Z,17.30
2023-02-12T01:45:45.373Z,17.30
2023-02-12T01:48:14.270Z,17.30
2023-02-12T01:50:43.127Z,17.30
2023-02-12T01:53:10.232Z,17.30
2023-02-12T01:55:37.039Z,17.30
2023-02-12T01:58:05.668Z,17.20
2023-02-12T02:00:33.164Z,17.20
2023-02-12T02:03:02.070Z,17.20
2023-02-12T02:05:54.360Z,17.20
2023-02-12T02:08:22.509Z,17.20
2023-02-12T02:10:49.320Z,17.20
2023-02-12T02:13:34.875Z,17.20
2023-02-12T02:16:12.115Z,17.10
2023-02-12T02:18:53.496Z,17.10
2023-02-12T02:21:35.780Z,17.10
2023-02-12T02:24:15.689Z,17.00
2023-02-12T02:26:50.879Z,17.10
2023-02-12T02:29:33.037Z,17.20
2023-02-12T02:32:10.103Z,17.40
2023-02-12T02:34:39.826Z,17.60
2023-02-12T02:37:19.500Z,17.80
2023-02-12T02:39:53.682Z,18.00
2023-02-12T02:42:38.492Z,18.10
2023-02-12T02:45:22.453Z,18.30
2023-02-12T02:47:55.877Z,18.40
2023-02-12T02:50:27.045Z,18.50
2023-02-12T02:52:59.562Z,18.60
2023-02-12T02:55:30.720Z,18.70
2023-02-12T02:58:01.592Z,18.80
2023-02-12T03:00:47.502Z,18.80
2023-02-12T03:03:37.075Z,18.90
2023-02-12T03:06:12.528Z,18.90
2023-02-12T03:08:52.666Z,19.00
2023-02-12T03:11:30.759Z,19.10
2023-02-12T03:14:03.838Z,19.10
2023-02-12T03:16:38.489Z,19.20
2023-02-12T03:19:14.782Z,19.20
2023-02-12T03:21:48.329Z,19.30
2023-02-12T03:24:41.255Z,19.20
2023-02-12T03:27:27.690Z,19.30
2023-02-12T03:29:54.478Z,19.40
2023-02-12T03:32:55.273Z,19.40
2023-02-12T03:35:30.365Z,19.40
2023-02-12T03:38:31.811Z,19.40
2023-02-12T03:41:27.694Z,19.50
2023-02-12T03:44:04.432Z,19.60
2023-02-12T03:46:53.141Z,19.50
2023-02-12T03:49:28.765Z,19.60
2023-02-12T03:51:55.773Z,19.60
2023-02-12T03:54:23.029Z,19.60
2023-02-12T03:56:59.605Z,19.70
2023-02-12T03:59:26.987Z,19.70
2023-02-12T04:01:57.795Z,19.70
2023-02-12T04:04:25.803Z,19.70
2023-02-12T04:06:53.990Z,19.70
2023-02-12T04:09:23.420Z,19.70
2023-02-12T04:11:50.069Z,19.80
2023-02-12T04:14:46.213Z,19.70
2023-02-12T04:17:32.646Z,19.80
2023-02-12T04:20:07.458Z,19.80
2023-02-12T04:22:59.939Z,19.80
2023-02-12T04:25:53.195Z,19.80
2023-02-12T04:28:30.800Z,19.80
2023-02-12T04:31:03.911Z,19.90
2023-02-12T04:33:38.907Z,19.90
2023-02-12T04:36:15.588Z,19.90
2023-02-12T04:38:48.368Z,19.90
2023-02-12T04:41:15.389Z,19.90
2023-02-12T04:43:42.070Z,19.90
2023-02-12T04:46:09.522Z,19.90
2023-02-12T04:48:49.393Z,20.00
2023-02-12T04:51:16.067Z,19.90
2023-02-12T04:53:42.735Z,20.00
2023-02-12T04:56:12.006Z,20.00
2023-02-12T04:58:39.368Z,20.00
2023-02-12T05:01:06.579Z,20.00
2023-02-12T05:03:33.455Z,20.00
2023-02-12T05:06:10.084Z,20.00
2023-02-12T05:08:36.841Z,20.00
2023-02-12T05:11:08.342Z,20.10
2023-02-12T05:13:35.478Z,20.00
2023-02-12T05:16:07.322Z,20.10
2023-02-12T05:18:35.092Z,20.10
2023-02-12T05:21:04.842Z,20.10
2023-02-12T05:23:34.113Z,20.10
2023-02-12T05:26:03.357Z,20.10
2023-02-12T05:28:30.956Z,20.10
2023-02-12T05:31:06.328Z,20.20
2023-02-12T05:33:33.232Z,20.10
2023-02-12T05:36:08.336Z,20.10
2023-02-12T05:38:35.324Z,20.10
2023-02-12T05:41:07.636Z,20.10
2023-02-12T05:43:34.467Z,20.10
2023-02-12T05:46:03.100Z,20.10
2023-02-12T05:48:30.528Z,20.10
2023-02-12T05:51:08.169Z,20.10
2023-02-12T05:53:35.750Z,20.00
2023-02-12T05:56:13.302Z,20.00
2023-02-12T05:58:41.819Z,20.00
2023-02-12T06:01:31.060Z,20.10
2023-02-12T06:03:59.768Z,20.00
2023-02-12T06:06:28.176Z,20.00
2023-02-12T06:08:55.478Z,20.00
2023-02-12T06:11:22.400Z,20.00
2023-02-12T06:13:49.478Z,20.00
2023-02-12T06:16:22.458Z,20.00
2023-02-12T06:18:50.374Z,20.00
2023-02-12T06:21:18.140Z,20.00
2023-02-12T06:23:45.084Z,20.00
2023-02-12T06:26:12.073Z,20.00
2023-02-12T06:28:39.256Z,20.00
2023-02-12T06:31:06.118Z,20.00
2023-02-12T06:33:35.514Z,20.00
2023-02-12T06:36:04.572Z,20.00
2023-02-12T06:38:31.246Z,20.00
2023-02-12T06:41:01.990Z,20.00
2023-02-12T06:43:28.720Z,20.00
2023-02-12T06:45:55.702Z,20.00
2023-02-12T06:48:22.564Z,20.00
2023-02-12T06:50:49.310Z,20.00
2023-02-12T06:53:15.990Z,20.00
2023-02-12T06:55:42.674Z,20.00
2023-02-12T06:58:09.388Z,20.00
2023-02-12T07:00:36.120Z,20.00
2023-02-12T07:03:02.854Z,20.00
2023-02-12T07:05:29.710Z,20.00
2023-02-12T07:07:56.448Z,20.00
2023-02-12T07:10:23.221Z,20.00
2023-02-12T07:12:49.920Z,20.00
2023-02-12T07:15:16.745Z,20.00
2023-02-12T07:17:43.474Z,20.00
2023-02-12T07:20:10.830Z,20.00
2023-02-12T07:22:37.950Z,20.00
2023-02-12T07:25:04.995Z,20.00
2023-02-12T07:27:31.830Z,20.00
2023-02-12T07:29:58.644Z,20.00
2023-02-12T07:32:25.513Z,20.00
2023-02-12T07:34:52.232Z,20.00
2023-02-12T07:37:22.641Z,20.00
2023-02-12T07:39:49.872Z,20.00
2023-02-12T07:42:16.731Z,20.00
2023-02-12T07:44:43.853Z,19.90
2023-02-12T07:47:10.646Z,19.90
2023-02-12T07:49:37.378Z,20.00
2023-02-12T07:52:04.156Z,20.00
2023-02-12T07:54:30.887Z,20.00
2023-02-12T07:56:58.223Z,20.00
2023-02-12T07:59:24.960Z,19.90
2023-02-12T08:01:52.944Z,19.70
2023-02-12T08:04:23.037Z,19.40
2023-02-12T08:06:52.264Z,19.20
2023-02-12T08:09:22.252Z,18.90
2023-02-12T08:11:49.644Z,18.70
2023-02-12T08:14:18.391Z,18.50
2023-02-12T08:16:47.559Z,18.40
2023-02-12T08:19:19.741Z,18.20
2023-02-12T08:21:53.024Z,18.10
2023-02-12T08:24:20.011Z,18.00
2023-02-12T08:26:46.689Z,17.90
2023-02-12T08:29:16.343Z,17.80
2023-02-12T08:31:45.799Z,17.70
2023-02-12T08:34:20.877Z,17.70
2023-02-12T08:36:49.132Z,17.60
2023-02-12T08:39:17.216Z,17.60
2023-02-12T08:41:44.620Z,17.70
2023-02-12T08:44:12.370Z,17.70
2023-02-12T08:46:43.467Z,17.80
2023-02-12T08:49:16.125Z,17.80
2023-02-12T08:51:50.316Z,17.90
2023-02-12T08:54:20.157Z,17.90
2023-02-12T08:56:46.907Z,18.00
2023-02-12T08:59:14.886Z,18.10
2023-02-12T09:01:42.550Z,18.10
2023-02-12T09:04:18.383Z,18.10
2023-02-12T09:06:46.425Z,18.20
2023-02-12T09:09:13.657Z,18.20
2023-02-12T09:11:40.685Z,18.20
2023-02-12T09:14:11.243Z,18.20
2023-02-12T09:16:40.361Z,18.20
2023-02-12T09:19:08.121Z,18.20
2023-02-12T09:21:34.909Z,18.20
2023-02-12T09:24:03.580Z,18.40
2023-02-12T09:26:30.831Z,18.50
2023-02-12T09:28:57.537Z,18.70
2023-02-12T09:31:27.014Z,18.90
2023-02-12T09:33:57.750Z,19.10
2023-02-12T09:36:24.484Z,19.20
2023-02-12T09:38:51.299Z,19.40
2023-02-12T09:41:37.602Z,19.50
2023-02-12T09:44:21.590Z,19.70
2023-02-12T09:47:02.775Z,19.90
2023-02-12T09:49:32.185Z,19.90
2023-02-12T09:51:59.705Z,20.10
2023-02-12T09:54:37.118Z,20.20
2023-02-12T09:57:13.494Z,20.20
2023-02-12T09:59:52.723Z,20.30
2023-02-12T10:02:21.741Z,20.40
2023-02-12T10:05:00.654Z,20.50
2023-02-12T10:07:43.389Z,20.50
2023-02-12T10:10:41.278Z,20.60
2023-02-12T10:13:17.914Z,20.70
2023-02-12T10:15:50.368Z,20.70
2023-02-12T10:18:28.954Z,20.70
2023-02-12T10:21:12.078Z,20.80
2023-02-12T10:23:50.736Z,20.90
2023-02-12T10:26:37.985Z,20.90
2023-02-12T10:29:26.366Z,20.90
2023-02-12T10:32:04.022Z,20.90
2023-02-12T10:34:37.015Z,21.00
2023-02-12T10:37:13.197Z,21.10
2023-02-12T10:39:48.593Z,21.20
2023-02-12T10:42:36.141Z,21.20
2023-02-12T10:45:02.955Z,21.30
2023-02-12T10:47:29.636Z,21.30
2023-02-12T10:50:00.174Z,21.40
2023-02-12T10:52:35.695Z,21.50
2023-02-12T10:55:02.469Z,21.50
2023-02-12T10:57:38.295Z,21.60
2023-02-12T11:00:21.301Z,21.60
2023-02-12T11:03:06.417Z,21.70
2023-02-12T11:05:36.052Z,21.70
2023-02-12T11:08:03.546Z,21.80
2023-02-12T11:10:34.570Z,21.80
2023-02-12T11:13:02.656Z,21.80
2023-02-12T11:15:46.067Z,21.90
2023-02-12T11:18:26.241Z,21.90
2023-02-12T11:20:57.115Z,21.90
2023-02-12T11:23:27.895Z,21.90
2023-02-12T11:26:00.814Z,21.90
2023-02-12T11:28:29.257Z,21.70
2023-02-12T11:31:02.376Z,21.40
2023-02-12T11:33:32.223Z,21.20
2023-02-12T11:36:15.227Z,20.90
2023-02-12T11:38:57.158Z,20.70
2023-02-12T11:41:28.482Z,20.50
2023-02-12T11:43:55.846Z,20.40
2023-02-12T11:46:25.578Z,20.20
2023-02-12T11:48:55.423Z,20.10
2023-02-12T11:51:26.860Z,20.00
2023-02-12T11:53:56.624Z,19.90
2023-02-12T11:56:23.342Z,19.80
2023-02-12T11:58:52.081Z,19.70
2023-02-12T12:01:29.991Z,19.70
2023-02-12T12:04:06.638Z,19.60
2023-02-12T12:06:40.931Z,19.50
2023-02-12T12:09:13.799Z,19.50
2023-02-12T12:11:46.336Z,19.40
2023-02-12T12:15:06.866Z,19.40
2023-02-12T12:18:05.578Z,19.30
2023-02-12T12:20:39.066Z,19.20
2023-02-12T12:23:28.733Z,19.20
2023-02-12T12:26:06.707Z,19.10
2023-02-12T12:29:07.317Z,19.10
2023-02-12T12:31:41.952Z,19.00
2023-02-12T12:34:22.375Z,18.90
2023-02-12T12:36:57.372Z,18.90
2023-02-12T12:39:46.966Z,18.80
2023-02-12T12:42:31.288Z,18.80
2023-02-12T12:45:15.652Z,18.70
2023-02-12T12:47:50.828Z,18.70
2023-02-12T12:50:43.760Z,18.60
2023-02-12T12:53:32.858Z,18.50
2023-02-12T12:56:24.202Z,18.40
2023-02-12T12:58:56.744Z,18.40
2023-02-12T13:01:51.387Z,18.40
2023-02-12T13:04:33.137Z,18.30
2023-02-12T13:07:24.784Z,18.30
2023-02-12T13:10:16.483Z,18.30
2023-02-12T13:13:21.240Z,18.30
2023-02-12T13:16:03.287Z,18.20
2023-02-12T13:18:32.765Z,18.30
2023-02-12T13:21:06.012Z,18.20
2023-02-12T13:23:45.954Z,18.30
2023-02-12T13:26:24.404Z,18.20
2023-02-12T13:29:00.944Z,18.20
2023-02-12T13:31:33.453Z,18.20
2023-02-12T13:34:05.160Z,18.10
2023-02-12T13:36:35.972Z,18.10
2023-02-12T13:39:35.933Z,18.10
2023-02-12T13:42:08.198Z,18.10
2023-02-12T13:44:37.875Z,18.10
2023-02-12T13:47:27.635Z,18.00
2023-02-12T13:50:27.435Z,18.00
2023-02-12T13:53:01.918Z,18.00
2023-02-12T13:55:41.496Z,18.00
2023-02-12T13:58:37.479Z,18.00
2023-02-12T14:01:14.330Z,18.00
2023-02-12T14:03:41.285Z,17.90
2023-02-12T14:06:20.422Z,17.90
2023-02-12T14:09:07.807Z,17.90
2023-02-12T14:11:46.296Z,17.90
2023-02-12T14:14:13.467Z,17.80
2023-02-12T14:16:41.396Z,17.80
2023-02-12T14:19:36.016Z,17.80
2023-02-12T14:22:33.793Z,17.70
2023-02-12T14:25:24.636Z,17.70
2023-02-12T14:28:09.324Z,17.70
2023-02-12T14:30:40.232Z,17.60
2023-02-12T14:33:07.110Z,17.60
2023-02-12T14:35:39.821Z,17.60
2023-02-12T14:38:10.104Z,17.60
2023-02-12T14:40:37.512Z,17.60
2023-02-12T14:43:23.527Z,17.60
2023-02-12T14:45:50.705Z,17.50
2023-02-12T14:49:06.107Z,17.50
2023-02-12T14:52:05.031Z,17.50
2023-02-12T14:54:37.476Z,17.40
2023-02-12T14:57:31.892Z,17.40
2023-02-12T15:00:18.585Z,17.40
2023-02-12T15:02:59.006Z,17.40
2023-02-12T15:05:43.385Z,17.30
2023-02-12T15:08:35.777Z,17.30
2023-02-12T15:11:13.808Z,17.20
2023-02-12T15:13:49.043Z,17.20
2023-02-12T15:16:29.793Z,17.30
2023-02-12T15:19:22.519Z,17.30
2023-02-12T15:21:51.841Z,17.20
2023-02-12T15:24:23.894Z,17.20
2023-02-12T15:27:01.064Z,17.20
2023-02-12T15:29:49.242Z,17.20
2023-02-12T15:32:27.664Z,17.20
2023-02-12T15:34:55.999Z,17.20
2023-02-12T15:37:30.399Z,17.10
2023-02-12T15:40:00.799Z,17.10
2023-02-12T15:42:32.717Z,17.10
2023-02-12T15:45:14.468Z,17.10
2023-02-12T15:47:41.944Z,17.10
2023-02-12T15:50:13.678Z,17.10
2023-02-12T15:52:43.180Z,17.10
2023-02-12T15:55:33.258Z,17.00
2023-02-12T15:58:01.551Z,17.00
2023-02-12T16:00:36.381Z,17.00
2023-02-12T16:03:03.098Z,17.00
2023-02-12T16:05:30.781Z,17.00
2023-02-12T16:07:58.119Z,17.00
2023-02-12T16:10:27.168Z,17.00
2023-02-12T16:12:54.809Z,17.00
2023-02-12T16:15:32.463Z,17.00
2023-02-12T16:18:03.929Z,16.90
2023-02-12T16:20:31.201Z,16.90
2023-02-12T16:22:58.495Z,16.90
2023-02-12T16:25:27.789Z,16.90
2023-02-12T16:28:05.429Z,16.80
2023-02-12T16:30:42.310Z,16.80
2023-02-12T16:33:36.837Z,16.80
2023-02-12T16:36:11.053Z,16.80
2023-02-12T16:38:42.470Z,16.70
2023-02-12T16:41:18.464Z,16.70
2023-02-12T16:44:06.058Z,16.60
2023-02-12T16:46:43.889Z,16.60
2023-02-12T16:49:18.456Z,16.60
2023-02-12T16:51:46.352Z,16.60
2023-02-12T16:54:28.139Z,16.50
2023-02-12T16:56:55.131Z,16.60
2023-02-12T16:59:21.848Z,16.50
2023-02-12T17:02:14.734Z,16.50
2023-02-12T17:04:42.270Z,16.50
2023-02-12T17:07:21.735Z,16.50
2023-02-12T17:09:48.778Z,16.50
2023-02-12T17:12:16.079Z,16.50
2023-02-12T17:14:42.870Z,16.50
2023-02-12T17:17:09.653Z,16.50
2023-02-12T17:19:36.914Z,16.40
2023-02-12T17:22:06.441Z,16.40
2023-02-12T17:24:36.425Z,16.40
2023-02-12T17:27:03.421Z,16.50
2023-02-12T17:29:30.702Z,16.40
2023-02-12T17:31:57.906Z,16.40
2023-02-12T17:34:25.224Z,16.40
2023-02-12T17:36:52.535Z,16.40
2023-02-12T17:39:19.758Z,16.30
2023-02-12T17:41:47.128Z,16.30
2023-02-12T17:44:15.100Z,16.30
2023-02-12T17:46:42.896Z,16.30
2023-02-12T17:49:09.722Z,16.20
2023-02-12T17:51:36.467Z,16.20
2023-02-12T17:54:03.352Z,16.20
2023-02-12T17:56:30.123Z,16.20
2023-02-12T17:58:56.960Z,16.20
2023-02-12T18:01:24.731Z,16.20
2023-02-12T18:03:54.529Z,16.20
2023-02-12T18:06:28.123Z,16.20
2023-02-12T18:08:56.882Z,16.20
2023-02-12T18:11:23.686Z,16.20
2023-02-12T18:13:55.636Z,16.20
2023-02-12T18:16:24.316Z,16.20
2023-02-12T18:18:51.258Z,16.20
2023-02-12T18:21:18.126Z,16.20
2023-02-12T18:23:45.172Z,16.20
2023-02-12T18:26:15.001Z,16.20
2023-02-12T18:28:42.155Z,16.10
2023-02-12T18:31:10.198Z,16.10
2023-02-12T18:33:37.919Z,16.10
2023-02-12T18:36:10.537Z,16.30
2023-02-12T18:38:39.377Z,16.60
2023-02-12T18:41:12.201Z,16.80
2023-02-12T18:43:39.562Z,17.00
2023-02-12T18:46:07.379Z,17.30
2023-02-12T18:48:34.484Z,17.50
2023-02-12T18:51:06.136Z,17.60
2023-02-12T18:53:33.312Z,17.80
2023-02-12T18:56:04.517Z,17.90
2023-02-12T18:58:31.245Z,18.10
2023-02-12T19:00:58.226Z,18.20
2023-02-12T19:03:25.776Z,18.30
2023-02-12T19:05:53.019Z,18.40
2023-02-12T19:08:19.848Z,18.40
2023-02-12T19:10:49.460Z,18.50
2023-02-12T19:13:16.336Z,18.50
2023-02-12T19:15:43.379Z,18.60
2023-02-12T19:18:10.199Z,18.60
2023-02-12T19:20:40.293Z,18.70
2023-02-12T19:23:07.161Z,18.70
2023-02-12T19:25:42.647Z,18.80
2023-02-12T19:28:10.602Z,18.80
2023-02-12T19:30:38.810Z,18.90
2023-02-12T19:33:06.025Z,18.90
2023-02-12T19:35:32.918Z,19.00
2023-02-12T19:38:00.357Z,19.00
2023-02-12T19:40:27.084Z,19.10
2023-02-12T19:42:54.133Z,19.10
2023-02-12T19:45:20.801Z,19.20
2023-02-12T19:47:47.769Z,19.20
2023-02-12T19:50:14.436Z,19.20
2023-02-12T19:52:41.454Z,19.20
2023-02-12T19:55:08.604Z,19.20
2023-02-12T19:57:37.923Z,19.20
2023-02-12T20:00:06.272Z,19.20
2023-02-12T20:02:33.274Z,19.20
2023-02-12T20:04:59.988Z,19.20
2023-02-12T20:07:26.753Z,19.20
2023-02-12T20:09:53.454Z,19.20
2023-02-12T20:12:20.233Z,19.20
2023-02-12T20:14:46.921Z,19.20
2023-02-12T20:17:14.324Z,19.20
2023-02-12T20:19:41.029Z,19.20
2023-02-12T20:22:07.718Z,19.20
2023-02-12T20:24:34.858Z,19.30
2023-02-12T20:27:02.669Z,19.20
2023-02-12T20:29:29.476Z,19.30
2023-02-12T20:31:56.290Z,19.30
2023-02-12T20:34:23.292Z,19.30
2023-02-12T20:36:50.059Z,19.30
2023-02-12T20:39:19.277Z,19.30
2023-02-12T20:41:46.673Z,19.30
2023-02-12T20:44:16.657Z,19.30
2023-02-12T20:46:47.752Z,19.30
2023-02-12T20:49:16.711Z,19.30
2023-02-12T20:51:43.965Z,19.30
2023-02-12T20:54:11.004Z,19.30
2023-02-12T20:56:38.833Z,19.30
2023-02-12T20:59:06.904Z,19.40
2023-02-12T21:01:36.151Z,19.40
2023-02-12T21:04:09.466Z,19.30
2023-02-12T21:06:40.013Z,19.40
2023-02-12T21:09:09.552Z,19.30
2023-02-12T21:11:36.660Z,19.30
2023-02-12T21:14:20.703Z,19.40
2023-02-12T21:16:48.842Z,19.40
2023-02-12T21:19:15.928Z,19.40
2023-02-12T21:21:46.590Z,19.40
2023-02-12T21:24:15.956Z,19.50
2023-02-12T21:26:42.950Z,19.50
2023-02-12T21:29:09.635Z,19.50
2023-02-12T21:31:39.674Z,19.50
2023-02-12T21:34:08.283Z,19.50
2023-02-12T21:36:37.527Z,19.50
2023-02-12T21:39:06.522Z,19.50
2023-02-12T21:41:35.570Z,19.60
2023-02-12T21:44:05.625Z,19.60
2023-02-12T21:46:34.746Z,19.60
2023-02-12T21:49:01.543Z,19.60
2023-02-12T21:51:30.377Z,19.60
2023-02-12T21:53:59.758Z,19.60
2023-02-12T21:56:27.189Z,19.70
2023-02-12T21:58:54.403Z,19.70
2023-02-12T22:01:25.655Z,19.70
2023-02-12T22:03:52.665Z,19.70
2023-02-12T22:06:22.254Z,19.70
2023-02-12T22:08:50.031Z,19.70
2023-02-12T22:11:17.842Z,19.70
2023-02-12T22:13:44.631Z,19.70
2023-02-12T22:16:12.569Z,19.70
2023-02-12T22:18:40.556Z,19.70
2023-02-12T22:21:11.976Z,19.70
2023-02-12T22:23:40.744Z,19.70
2023-02-12T22:26:10.213Z,19.60
2023-02-12T22:28:42.238Z,19.60
2023-02-12T22:31:10.318Z,19.60
2023-02-12T22:33:37.237Z,19.60
2023-02-12T22:36:06.071Z,19.60
2023-02-12T22:38:40.455Z,19.60
2023-02-12T22:41:08.719Z,19.60
2023-02-12T22:43:37.549Z,19.60
2023-02-12T22:46:05.391Z,19.60
2023-02-12T22:48:32.192Z,19.50
2023-02-12T22:50:59.894Z,19.50
2023-02-12T22:53:26.810Z,19.50
2023-02-12T22:55:53.483Z,19.50
2023-02-12T22:58:20.281Z,19.50
2023-02-12T23:00:46.956Z,19.50
2023-02-12T23:03:13.670Z,19.50
2023-02-12T23:05:40.341Z,19.50
2023-02-12T23:08:07.021Z,19.50
2023-02-12T23:10:34.053Z,19.40
2023-02-12T23:13:02.612Z,19.40
2023-02-12T23:15:30.127Z,19.40
2023-02-12T23:17:56.847Z,19.40
2023-02-12T23:20:24.552Z,19.40
2023-02-12T23:22:51.253Z,19.40
2023-02-12T23:25:17.953Z,19.40
2023-02-12T23:27:44.640Z,19.40
2023-02-12T23:30:11.823Z,19.40
2023-02-12T23:32:38.557Z,19.40
2023-02-12T23:35:05.564Z,19.40
2023-02-12T23:37:32.227Z,19.40
2023-02-12T23:39:58.929Z,19.40
2023-02-12T23:42:25.605Z,19.40
2023-02-12T23:44:52.259Z,19.40
2023-02-12T23:47:18.920Z,19.40
2023-02-12T23:49:45.588Z,19.40
2023-02-12T23:52:12.235Z,19.30
2023-02-12T23:54:39.666Z,19.30
2023-02-12T23:57:06.373Z,19.40
2023-02-12T23:59:33.034Z,19.30
